DW8048 Weather Reports


Display with metric or nautical units.
time (UTC)temp
F
wind
direction
speed
MPH
gust
MPH
rain 1hr
in
rain 24hr
in
rain mn
in
humidity
%
barometer
mb
20200404002502 51 244 0.0 5.0 0.00 0.00 0.00 96 1013.5
20200404002003 51 219 0.0 5.0 0.00 0.00 0.00 96 1013.5
20200404001502 51 253 0.0 6.0 0.00 0.00 0.00 96 1013.7
20200404001002 51 31 0.0 6.0 0.00 0.00 0.00 96 1013.6
20200404000504 51 263 2.0 6.0 0.00 0.00 0.00 96 1013.7
20200404000137 51 249 1.0 5.0 0.00 0.00 0.00 96 1013.8
20200403235559 51 249 1.0 8.0 0.00 0.00 0.00 95 1013.7
20200403235059 51 305 1.0 8.0 0.00 0.00 0.00 95 1013.6
20200403234629 51 6 2.0 6.0 0.00 0.00 0.00 95 1013.3
20200403234057 52 221 1.0 7.0 0.00 0.00 0.00 95 1012.9
20200403233635 52 179 1.0 10.0 0.00 0.00 0.00 95 1012.5
20200403233100 53 224 3.0 10.0 0.00 0.00 0.00 96 1012.2
20200403232556 53 350 3.0 10.0 0.00 0.00 0.00 96 1011.9
20200403232054 53 275 3.0 9.0 0.00 0.00 0.00 96 1011.8
20200403231634 53 259 3.0 8.0 0.00 0.00 0.00 95 1012.0
20200403231051 53 215 3.0 9.0 0.00 0.00 0.00 95 1011.9
20200403230555 53 239 3.0 12.0 0.00 0.00 0.00 95 1012.1
20200403230220 54 261 6.0 12.0 0.00 0.00 0.00 94 1011.9
20200403225548 54 220 3.0 8.0 0.00 0.00 0.00 94 1011.9
20200403225046 55 195 3.0 11.0 0.00 0.00 0.00 94 1011.9
20200403224620 55 285 4.0 11.0 0.00 0.00 0.00 93 1011.6
20200403224044 56 293 4.0 9.0 0.00 0.00 0.00 93 1011.4
20200403223545 57 251 2.0 8.0 0.00 0.00 0.00 93 1011.4
20200403223244 57 229 1.0 8.0 0.00 0.00 0.00 93 1011.4
20200403222539 58 267 2.0 8.0 0.00 0.00 0.00 93 1011.3
20200403222038 59 239 3.0 8.0 0.00 0.00 0.00 92 1011.1
20200403221608 59 222 1.0 6.0 0.00 0.00 0.00 92 1011.0
20200403221035 60 241 1.0 6.0 0.00 0.00 0.00 91 1010.8
20200403220545 61 233 2.0 7.0 0.00 0.00 0.00 89 1010.6
20200403220104 62 310 3.0 7.0 0.00 0.00 0.00 88 1010.7
20200403215534 63 282 1.0 9.0 0.00 0.00 0.00 86 1010.6
20200403215030 65 307 2.0 9.0 0.00 0.00 0.00 84 1010.5
20200403214606 67 229 1.0 8.0 0.00 0.00 0.00 80 1010.2
20200403214028 71 241 3.0 11.0 0.00 0.00 0.00 74 1010.0
20200403213529 76 156 4.0 11.0 0.00 0.00 0.00 66 1009.7
20200403213108 81 154 0.0 0.0 0.00 0.00 0.00 74 1009.1
20200403212528 81 119 0.0 0.0 0.00 0.00 0.00 74 1009.0
20200403212029 82 119 0.0 0.0 0.00 0.00 0.00 75 1009.0
20200403211538 82 119 0.0 1.0 0.00 0.00 0.00 73 1009.0
20200403211030 82 118 0.0 1.0 0.00 0.00 0.00 73 1009.0
20200403210533 83 118 0.0 1.0 0.00 0.00 0.00 73 1009.1
20200403210054 83 118 0.0 1.0 0.00 0.00 0.00 71 1009.0
20200403205529 84 122 0.0 0.0 0.00 0.00 0.00 72 1009.1
20200403205031 84 122 0.0 1.0 0.00 0.00 0.00 68 1009.2
20200403204534 84 121 0.0 1.0 0.00 0.00 0.00 71 1009.3
20200403204024 84 122 0.0 1.0 0.00 0.00 0.00 71 1009.5
20200403203524 84 122 0.0 1.0 0.00 0.00 0.00 71 1009.5
20200403203103 83 118 0.0 1.0 0.00 0.00 0.00 73 1009.5
20200403202524 83 112 0.0 2.0 0.00 0.00 0.00 72 1009.6
20200403202034 83 112 0.0 2.0 0.00 0.00 0.00 74 1009.3
20200403201540 83 93 0.0 4.0 0.00 0.00 0.00 72 1009.4
20200403201037 84 95 0.0 4.0 0.00 0.00 0.00 71 1009.4
20200403200521 84 102 0.0 3.0 0.00 0.00 0.00 69 1009.7
20200403200034 84 17 0.0 1.0 0.00 0.00 0.00 73 1009.9
20200403195520 84 11 0.0 1.0 0.00 0.00 0.00 72 1010.0
20200403195018 83 336 0.0 1.0 0.00 0.00 0.00 73 1010.2
20200403194518 82 183 0.0 4.0 0.00 0.00 0.00 75 1010.3
20200403194018 82 183 0.0 4.0 0.00 0.00 0.00 73 1010.3
20200403193521 83 337 0.0 1.0 0.00 0.00 0.00 72 1010.3
20200403193025 82 78 0.0 1.0 0.00 0.00 0.00 74 1010.2
20200403192520 82 78 0.0 2.0 0.00 0.00 0.00 74 1010.4
20200403192019 82 89 0.0 0.0 0.00 0.00 0.00 74 1010.5
20200403191526 82 89 0.0 0.0 0.00 0.00 0.00 75 1010.6
20200403191016 82 89 0.0 0.0 0.00 0.00 0.00 76 1010.6
20200403190521 82 89 0.0 0.0 0.00 0.00 0.00 75 1010.5
20200403190016 81 89 0.0 0.0 0.00 0.00 0.00 74 1010.7
20200403185516 81 89 0.0 0.0 0.00 0.00 0.00 75 1010.6
20200403185016 81 143 0.0 1.0 0.00 0.00 0.00 75 1010.6
20200403184536 81 109 0.0 2.0 0.00 0.00 0.00 75 1010.6
20200403184017 81 110 0.0 2.0 0.00 0.00 0.00 75 1010.7
20200403183521 81 100 0.0 2.0 0.00 0.00 0.00 76 1010.7
20200403183021 81 94 0.0 2.0 0.00 0.00 0.00 75 1010.9
20200403182534 81 110 0.0 1.0 0.00 0.00 0.00 75 1011.0
20200403182015 81 110 0.0 1.0 0.00 0.00 0.00 76 1011.0
20200403181520 81 110 0.0 1.0 0.00 0.00 0.00 77 1011.0
20200403181014 81 110 0.0 2.0 0.00 0.00 0.00 75 1011.2
20200403180519 82 115 0.0 2.0 0.00 0.00 0.00 75 1011.3
20200403180039 82 278 0.0 5.0 0.00 0.00 0.00 77 1011.4
20200403175515 81 89 0.0 5.0 0.00 0.00 0.00 76 1011.5
20200403175019 80 108 0.0 2.0 0.00 0.00 0.00 79 1011.7
20200403174520 80 108 0.0 4.0 0.00 0.00 0.00 78 1011.8
20200403174033 80 107 0.0 2.0 0.00 0.00 0.00 76 1011.9
20200403173518 80 104 0.0 2.0 0.00 0.00 0.00 76 1012.1
20200403173024 81 191 0.0 0.0 0.00 0.00 0.00 77 1012.1
20200403172513 81 187 0.0 0.0 0.00 0.00 0.00 77 1012.3
20200403172013 80 187 0.0 0.0 0.00 0.00 0.00 78 1012.5
20200403171522 80 187 0.0 0.0 0.00 0.00 0.00 78 1012.5
20200403171018 81 189 0.0 0.0 0.00 0.00 0.00 75 1012.6
20200403170512 81 179 0.0 0.0 0.00 0.00 0.00 75 1012.7
20200403170025 83 214 0.0 0.0 0.00 0.00 0.00 72 1012.8
20200403165512 83 158 0.0 0.0 0.00 0.00 0.00 71 1012.9
20200403165016 84 147 0.0 0.0 0.00 0.00 0.00 74 1012.8
20200403164515 83 105 0.0 0.0 0.00 0.00 0.00 74 1012.9
20200403164021 82 104 0.0 0.0 0.00 0.00 0.00 77 1012.9
20200403163511 81 105 0.0 0.0 0.00 0.00 0.00 78 1013.0
20200403163039 80 105 0.0 2.0 0.00 0.00 0.00 78 1013.0
20200403162509 79 110 0.0 2.0 0.00 0.00 0.00 76 1012.9
20200403162004 79 93 0.0 1.0 0.00 0.00 0.00 79 1013.0
20200403161504 78 114 0.0 1.0 0.00 0.00 0.00 82 1013.1
20200403161007 77 113 0.0 4.0 0.00 0.00 0.00 82 1013.3
20200403160510 76 87 0.0 4.0 0.00 0.00 0.00 81 1013.5
20200403160010 77 100 0.0 1.0 0.00 0.00 0.00 81 1013.6
20200403155502 77 292 0.0 5.0 0.00 0.00 0.00 79 1013.5
20200403155104 77 287 0.0 5.0 0.00 0.00 0.00 80 1013.5
20200403154733 77 295 0.0 4.0 0.00 0.00 0.00 81 1013.3
20200403154058 76 93 0.0 2.0 0.00 0.00 0.00 82 1013.2
20200403153556 75 93 0.0 1.0 0.00 0.00 0.00 86 1013.2
20200403153147 74 92 0.0 1.0 0.00 0.00 0.00 87 1013.1
20200403152553 73 106 0.0 1.0 0.00 0.00 0.00 89 1012.9
20200403152104 72 104 0.0 1.0 0.00 0.00 0.00 90 1012.8
20200403151609 71 104 0.0 1.0 0.00 0.00 0.00 92 1012.7
20200403151054 70 104 0.0 1.0 0.00 0.00 0.00 91 1012.4
20200403150547 70 102 0.0 4.0 0.00 0.00 0.00 91 1012.1
20200403150139 70 94 0.0 4.0 0.00 0.00 0.00 92 1011.9
20200403145545 69 94 0.0 1.0 0.00 0.00 0.00 93 1011.8
20200403145045 69 100 0.0 2.0 0.00 0.00 0.00 94 1011.8
20200403144638 68 100 0.0 2.0 0.00 0.00 0.00 94 1011.9
20200403144044 68 104 0.0 2.0 0.00 0.00 0.00 94 1012.0
20200403143550 68 104 0.0 2.0 0.00 0.00 0.00 94 1012.1
20200403143210 68 102 0.0 1.0 0.00 0.00 0.00 94 1012.3
20200403142541 67 102 0.0 1.0 0.00 0.00 0.00 94 1012.3
20200403142042 67 104 0.0 4.0 0.00 0.00 0.00 94 1012.5
20200403141635 67 91 0.0 4.0 0.00 0.00 0.00 93 1012.4
20200403141039 67 104 0.0 2.0 0.00 0.00 0.00 94 1012.4
20200403140544 67 104 0.0 1.0 0.00 0.00 0.00 94 1012.4
20200403140157 67 105 0.0 1.0 0.00 0.00 0.00 95 1012.2
20200403135536 67 109 0.0 2.0 0.00 0.00 0.00 95 1012.2
20200403135042 67 117 0.0 2.0 0.00 0.00 0.00 95 1012.0
20200403134559 67 98 0.0 1.0 0.00 0.00 0.00 95 1011.9
20200403134037 67 99 0.0 2.0 0.00 0.00 0.00 95 1011.9
20200403133537 66 95 0.0 2.0 0.00 0.00 0.00 96 1011.8
20200403133108 66 89 0.0 1.0 0.00 0.00 0.00 96 1011.7
20200403132532 66 87 0.0 1.0 0.00 0.00 0.00 96 1011.4
20200403132031 66 100 0.0 4.0 0.00 0.00 0.00 96 1011.5
20200403131602 66 101 0.0 1.0 0.00 0.00 0.00 96 1011.4
20200403131037 65 98 0.0 1.0 0.00 0.00 0.00 96 1011.4
20200403130533 65 101 0.0 1.0 0.00 0.00 0.00 96 1011.1
20200403130052 65 97 0.0 1.0 0.00 0.00 0.00 97 1011.0
20200403125529 65 97 0.0 4.0 0.00 0.00 0.00 97 1011.0
20200403125029 65 96 0.0 4.0 0.00 0.00 0.00 97 1010.9
20200403124530 65 94 0.0 2.0 0.00 0.00 0.00 97 1010.8
20200403124037 65 94 0.0 2.0 0.00 0.00 0.00 97 1010.9
20200403123536 65 82 0.0 1.0 0.00 0.00 0.00 97 1010.9
20200403123031 65 109 0.0 1.0 0.00 0.00 0.00 97 1010.8
20200403122527 65 109 0.0 2.0 0.00 0.00 0.00 97 1010.9
20200403122031 65 109 0.0 2.0 0.00 0.00 0.00 97 1010.7
20200403121617 65 92 0.0 2.0 0.00 0.00 0.00 97 1010.6
20200403121027 65 92 0.0 1.0 0.00 0.00 0.00 97 1010.6
20200403120533 65 92 0.0 2.0 0.00 0.00 0.00 97 1010.7
20200403120050 65 91 0.0 2.0 0.00 0.00 0.00 97 1010.7
20200403115535 65 97 0.0 2.0 0.00 0.00 0.00 97 1010.7
20200403115025 65 98 0.0 1.0 0.00 0.00 0.00 97 1010.7
20200403114552 65 93 0.0 2.0 0.00 0.00 0.00 96 1010.7
20200403114025 65 264 0.0 2.0 0.00 0.00 0.00 96 1010.7
20200403113545 65 93 0.0 1.0 0.00 0.00 0.00 96 1010.7
20200403113034 65 92 0.0 1.0 0.00 0.00 0.00 96 1010.6
20200403112526 65 92 0.0 2.0 0.00 0.00 0.00 96 1010.4
20200403112025 65 106 0.0 2.0 0.00 0.00 0.00 96 1010.3
20200403111534 65 97 0.0 1.0 0.00 0.00 0.00 96 1010.4
20200403111024 65 105 0.0 2.0 0.00 0.00 0.00 96 1010.3
20200403110524 65 109 0.0 2.0 0.00 0.00 0.00 96 1010.4
20200403110100 65 87 0.0 2.0 0.00 0.00 0.00 96 1010.4
20200403105529 65 91 0.0 2.0 0.00 0.00 0.00 96 1010.4
20200403105024 65 93 0.0 2.0 0.00 0.00 0.00 96 1010.4
20200403104553 65 107 0.0 1.0 0.00 0.00 0.00 96 1010.3
20200403104026 65 91 0.0 2.0 0.00 0.00 0.00 96 1010.4
20200403103523 65 91 0.0 2.0 0.00 0.00 0.00 96 1010.3
20200403103117 65 97 0.0 2.0 0.00 0.00 0.00 96 1010.3
20200403102549 65 97 0.0 2.0 0.00 0.00 0.00 96 1010.2
20200403102023 65 88 0.0 5.0 0.00 0.00 0.00 96 1010.3
20200403101538 65 80 0.0 5.0 0.00 0.00 0.00 96 1010.2
20200403101028 65 85 0.0 5.0 0.00 0.00 0.00 96 1010.3
20200403100525 65 99 0.0 1.0 0.00 0.00 0.00 96 1010.3
20200403100048 65 106 0.0 1.0 0.00 0.00 0.00 96 1010.2
20200403095522 65 89 0.0 1.0 0.00 0.00 0.00 96 1010.3
20200403095026 65 81 0.0 5.0 0.00 0.00 0.00 96 1010.3
20200403094543 65 97 0.0 5.0 0.00 0.00 0.00 96 1010.3
20200403094028 65 95 0.0 1.0 0.00 0.00 0.00 96 1010.3
20200403093521 65 95 0.0 1.0 0.00 0.00 0.00 96 1010.3
20200403093025 65 91 0.0 1.0 0.00 0.00 0.00 96 1010.3
20200403092521 65 99 0.0 4.0 0.00 0.00 0.00 96 1010.3
20200403092021 65 95 0.0 4.0 0.00 0.00 0.00 96 1010.2
20200403091606 65 93 0.0 4.0 0.00 0.00 0.00 96 1010.2
20200403091042 65 85 0.0 4.0 0.00 0.00 0.00 96 1010.3
20200403090526 65 102 0.0 2.0 0.00 0.00 0.00 96 1010.2
20200403090031 65 86 0.0 4.0 0.00 0.00 0.00 96 1010.2
20200403085520 65 102 0.0 4.0 0.00 0.00 0.00 95 1010.4
20200403085030 65 89 0.0 4.0 0.00 0.00 0.00 95 1010.4
20200403084556 65 86 0.0 4.0 0.00 0.00 0.00 95 1010.4
20200403084020 65 95 0.0 4.0 0.00 0.00 0.00 95 1010.3
20200403083525 65 99 0.0 4.0 0.00 0.00 0.00 95 1010.3
20200403083035 65 83 0.0 4.0 0.00 0.00 0.00 95 1010.2
20200403082519 65 106 0.0 5.0 0.00 0.00 0.00 95 1010.2
20200403082018 65 306 0.0 6.0 0.00 0.00 0.00 95 1010.3
20200403081533 65 97 1.0 6.0 0.00 0.00 0.00 96 1010.3
20200403081018 65 77 0.0 6.0 0.00 0.00 0.00 96 1010.3
20200403080521 65 106 0.0 1.0 0.00 0.00 0.00 96 1010.3
20200403080041 65 110 0.0 6.0 0.00 0.00 0.00 95 1010.3
20200403075516 65 104 0.0 6.0 0.00 0.00 0.00 96 1010.3
20200403075015 64 95 0.0 6.0 0.00 0.00 0.00 96 1010.4
20200403074544 65 171 0.0 4.0 0.00 0.00 0.00 96 1010.4
20200403074020 64 116 0.0 2.0 0.00 0.00 0.00 96 1010.4
20200403073515 64 85 0.0 4.0 0.00 0.00 0.00 96 1010.5
20200403073044 64 93 0.0 1.0 0.00 0.00 0.00 96 1010.6
20200403072515 64 93 0.0 2.0 0.00 0.00 0.00 96 1010.6
20200403072030 64 98 0.0 4.0 0.00 0.00 0.00 96 1010.6
20200403071607 64 106 0.0 4.0 0.00 0.00 0.00 96 1010.7
20200403071012 64 129 0.0 1.0 0.00 0.00 0.00 96 1010.7
20200403070511 64 99 0.0 2.0 0.00 0.00 0.00 96 1010.8
20200403070105 64 112 0.0 4.0 0.00 0.00 0.00 96 1010.9
20200403065511 64 102 0.0 2.0 0.00 0.00 0.00 96 1010.9
20200403065019 64 90 0.0 1.0 0.00 0.00 0.00 96 1011.0
20200403064509 64 91 0.0 1.0 0.00 0.00 0.00 96 1011.1
20200403064008 64 82 0.0 1.0 0.00 0.00 0.00 96 1011.3
20200403063520 64 108 0.0 0.0 0.00 0.00 0.00 97 1011.3
20200403063030 64 108 0.0 1.0 0.00 0.00 0.00 96 1011.3
20200403062508 64 108 0.0 5.0 0.00 0.00 0.00 97 1011.3
20200403062020 64 91 0.0 6.0 0.00 0.00 0.00 97 1011.3
20200403061508 64 86 0.0 5.0 0.00 0.00 0.00 97 1011.3
20200403061012 64 95 0.0 1.0 0.00 0.00 0.00 97 1011.3
20200403060515 64 95 0.0 1.0 0.00 0.00 0.00 97 1011.3
20200403060008 64 97 0.0 1.0 0.00 0.00 0.00 97 1011.3
20200403055507 64 114 0.0 2.0 0.00 0.00 0.00 97 1011.3
20200403055007 64 108 0.0 4.0 0.00 0.00 0.00 97 1011.4
20200403054547 64 84 0.0 4.0 0.00 0.00 0.00 97 1011.5
20200403054007 64 93 0.0 8.0 0.00 0.00 0.00 97 1011.3
20200403053506 64 102 0.0 5.0 0.00 0.00 0.00 97 1011.2
20200403053020 65 93 0.0 4.0 0.00 0.00 0.00 97 1011.3
20200403052511 65 307 0.0 3.0 0.00 0.00 0.00 97 1011.3
20200403052003 65 110 0.0 4.0 0.00 0.00 0.00 97 1011.5
20200403051506 65 110 0.0 4.0 0.00 0.00 0.00 97 1011.5
20200403051006 65 100 0.0 4.0 0.00 0.00 0.00 97 1011.6
20200403050502 65 141 0.0 4.0 0.00 0.00 0.00 97 1011.6
20200403050004 65 285 0.0 4.0 0.00 0.00 0.00 97 1011.7
20200403045100 65 113 0.0 2.0 0.00 0.00 0.00 97 1011.5
20200403044649 65 92 0.0 2.0 0.00 0.00 0.00 97 1011.6
20200403044100 65 97 0.0 1.0 0.00 0.00 0.00 97 1011.5
20200403043600 65 105 0.0 1.0 0.00 0.00 0.00 97 1011.5
20200403043210 65 109 0.0 1.0 0.00 0.00 0.00 97 1011.7
20200403042600 65 108 0.0 1.0 0.00 0.00 0.00 97 1011.7
20200403042101 65 128 0.0 1.0 0.00 0.00 0.00 97 1011.7
20200403041655 65 160 0.0 2.0 0.00 0.00 0.00 97 1011.5
20200403041100 65 102 0.0 2.0 0.00 0.00 0.00 97 1011.4
20200403040600 65 113 0.0 2.0 0.00 0.00 0.00 97 1011.6
20200403040311 65 108 0.0 2.0 0.00 0.00 0.00 97 1011.3
20200403035558 65 111 0.0 2.0 0.00 0.00 0.00 97 1011.2
20200403035104 65 65 0.0 1.0 0.00 0.00 0.00 97 1011.4
20200403034713 65 79 0.0 0.0 0.00 0.00 0.00 97 1011.4
20200403034119 65 79 0.0 1.0 0.00 0.00 0.00 97 1011.5
20200403033558 65 79 0.0 4.0 0.00 0.00 0.00 97 1011.5
20200403033120 65 268 0.0 4.0 0.00 0.00 0.00 97 1011.5
20200403032605 65 108 0.0 1.0 0.00 0.00 0.00 97 1011.5
20200403032057 65 88 0.0 2.0 0.00 0.00 0.00 97 1011.3
20200403031730 65 88 0.0 2.0 0.00 0.00 0.00 97 1011.3
20200403031102 65 134 0.0 1.0 0.00 0.00 0.00 97 1011.1
20200403030606 65 118 0.0 1.0 0.00 0.00 0.00 97 1011.1
20200403030110 65 116 0.0 1.0 0.00 0.00 0.00 97 1011.0
20200403025556 65 116 0.0 4.0 0.00 0.00 0.00 97 1011.1
20200403025056 66 135 0.0 4.0 0.00 0.00 0.00 97 1011.0
20200403024740 66 102 0.0 1.0 0.00 0.00 0.00 97 1010.9
20200403024102 66 109 0.0 1.0 0.00 0.00 0.00 97 1010.9
20200403023556 66 117 0.0 2.0 0.00 0.00 0.00 97 1010.8
20200403023131 66 81 0.0 2.0 0.00 0.00 0.00 97 1010.5
20200403022602 66 116 0.0 1.0 0.00 0.00 0.00 97 1010.4
20200403022055 66 91 0.0 1.0 0.00 0.00 0.00 97 1010.5
20200403021643 66 132 0.0 0.0 0.00 0.00 0.00 97 1010.5
20200403021055 66 131 0.0 0.0 0.00 0.00 0.00 97 1010.5
20200403020612 66 131 0.0 0.0 0.00 0.00 0.00 97 1010.3
20200403020240 66 154 0.0 1.0 0.00 0.00 0.00 97 1010.3
20200403015555 66 154 0.0 1.0 0.00 0.00 0.00 97 1010.3
20200403015054 66 109 0.0 1.0 0.00 0.00 0.00 97 1010.0
20200403014629 66 85 0.0 2.0 0.00 0.00 0.00 97 1009.8
20200403014103 66 81 0.0 2.0 0.00 0.00 0.00 97 1009.8
20200403014030 66 85 0.0 2.0 0.00 0.00 0.00 97 1009.8
20200403013601 66 109 0.0 4.0 0.00 0.00 0.00 97 1009.8
20200403013136 66 94 0.0 4.0 0.00 0.00 0.00 97 1009.8
20200403012554 66 87 0.0 2.0 0.00 0.00 0.00 97 1009.5
20200403012105 66 72 0.0 5.0 0.00 0.00 0.00 96 1009.4
20200403011722 66 83 0.0 5.0 0.00 0.00 0.00 96 1009.0
20200403011052 66 91 0.0 1.0 0.00 0.00 0.00 96 1009.3
20200403010552 66 93 0.0 4.0 0.00 0.00 0.00 96 1009.7
20200403010213 66 86 0.0 4.0 0.00 0.00 0.00 96 1009.6
20200403005557 66 76 0.0 1.0 0.00 0.00 0.00 96 1009.6
20200403005106 66 75 0.0 1.0 0.00 0.00 0.00 96 1009.5
20200403004634 66 75 0.0 1.0 0.00 0.00 0.00 96 1009.4
20200403004051 66 93 0.0 1.0 0.00 0.00 0.00 96 1009.0
20200403003552 66 66 0.0 1.0 0.00 0.00 0.00 95 1008.9
20200403003230 66 64 0.0 1.0 0.00 0.00 0.00 95 1008.9